createdAt,value
2018-04-10T00:01:55.602Z,10.00
2018-04-10T00:04:23.306Z,10.00
2018-04-10T00:06:50.996Z,10.00
2018-04-10T00:09:18.691Z,9.90
2018-04-10T00:11:47.170Z,9.80
2018-04-10T00:14:14.830Z,9.80
2018-04-10T00:16:42.499Z,9.70
2018-04-10T00:19:10.974Z,9.70
2018-04-10T00:21:39.382Z,9.60
2018-04-10T00:24:07.077Z,9.60
2018-04-10T00:26:34.740Z,9.60
2018-04-10T00:29:02.376Z,9.50
2018-04-10T00:31:30.102Z,9.40
2018-04-10T00:33:58.586Z,9.30
2018-04-10T00:36:26.992Z,9.30
2018-04-10T00:38:54.665Z,9.30
2018-04-10T00:41:22.352Z,9.20
2018-04-10T00:43:50.024Z,9.20
2018-04-10T00:46:17.714Z,9.10
2018-04-10T00:48:45.441Z,9.00
2018-04-10T00:51:13.080Z,9.00
2018-04-10T00:53:40.754Z,9.00
2018-04-10T00:56:08.467Z,8.90
2018-04-10T00:58:36.096Z,8.80
2018-04-10T01:01:03.794Z,8.80
2018-04-10T01:03:31.479Z,8.70
2018-04-10T01:05:59.149Z,8.70
2018-04-10T01:08:26.831Z,8.60
2018-04-10T01:10:54.497Z,8.60
2018-04-10T01:13:22.166Z,8.60
2018-04-10T01:15:50.624Z,8.60
2018-04-10T01:18:18.326Z,8.50
2018-04-10T01:20:45.978Z,8.50
2018-04-10T01:23:13.646Z,8.50
2018-04-10T01:25:41.350Z,8.50
2018-04-10T01:28:09.016Z,8.40
2018-04-10T01:30:36.706Z,8.40
2018-04-10T01:33:05.182Z,8.30
2018-04-10T01:35:32.835Z,8.30
2018-04-10T01:38:00.535Z,8.30
2018-04-10T01:40:28.180Z,8.30
2018-04-10T01:42:55.831Z,8.30
2018-04-10T01:45:24.292Z,8.30
2018-04-10T01:47:51.983Z,8.20
2018-04-10T01:50:19.638Z,8.20
2018-04-10T01:52:47.306Z,8.20
2018-04-10T01:55:15.049Z,8.20
2018-04-10T01:57:42.693Z,8.10
2018-04-10T02:00:10.421Z,8.20
2018-04-10T02:02:38.089Z,8.20
2018-04-10T02:05:05.761Z,8.20
2018-04-10T02:07:33.424Z,8.10
2018-04-10T02:10:18.715Z,8.10
2018-04-10T02:12:46.394Z,8.10
2018-04-10T02:15:14.854Z,8.20
2018-04-10T02:17:42.548Z,8.10
2018-04-10T02:20:10.225Z,8.20
2018-04-10T02:22:37.921Z,8.20
2018-04-10T02:25:05.628Z,8.20
2018-04-10T02:27:33.295Z,8.20
2018-04-10T02:30:00.990Z,8.10
2018-04-10T02:32:28.626Z,8.10
2018-04-10T02:34:56.328Z,8.00
2018-04-10T02:37:24.016Z,8.00
2018-04-10T02:39:52.457Z,8.00
2018-04-10T02:42:20.234Z,7.90
2018-04-10T02:44:47.993Z,7.90
2018-04-10T02:47:15.650Z,7.90
2018-04-10T02:49:43.369Z,7.80
2018-04-10T02:52:11.064Z,7.80
2018-04-10T02:54:38.723Z,7.80
2018-04-10T02:57:06.403Z,7.80
2018-04-10T02:59:34.105Z,7.80
2018-04-10T03:02:01.779Z,7.70
2018-04-10T03:04:29.485Z,7.70
2018-04-10T03:06:57.151Z,7.70
2018-04-10T03:09:24.785Z,7.60
2018-04-10T03:11:52.458Z,7.60
2018-04-10T03:14:20.194Z,7.60
2018-04-10T03:16:47.830Z,7.60
2018-04-10T03:19:15.510Z,7.50
2018-04-10T03:21:43.191Z,7.50
2018-04-10T03:24:10.858Z,7.50
2018-04-10T03:26:38.547Z,7.50
2018-04-10T03:29:06.246Z,7.50
2018-04-10T03:31:34.678Z,7.50
2018-04-10T03:34:02.355Z,7.50
2018-04-10T03:36:30.070Z,7.50
2018-04-10T03:38:57.724Z,7.40
2018-04-10T03:41:25.415Z,7.40
2018-04-10T03:43:53.094Z,7.40
2018-04-10T03:46:21.534Z,7.40
2018-04-10T03:48:49.205Z,7.40
2018-04-10T03:51:16.901Z,7.40
2018-04-10T03:53:45.304Z,7.40
2018-04-10T03:56:12.984Z,7.40
2018-04-10T03:58:40.650Z,7.40
2018-04-10T04:01:08.274Z,7.30
2018-04-10T04:03:35.952Z,7.30
2018-04-10T04:06:03.655Z,7.30
2018-04-10T04:08:31.313Z,7.30
2018-04-10T04:10:58.981Z,7.30
2018-04-10T04:13:26.648Z,7.30
2018-04-10T04:15:54.302Z,7.30
2018-04-10T04:21:33.405Z,7.40
2018-04-10T04:24:01.083Z,7.40
2018-04-10T04:26:28.777Z,7.40
2018-04-10T04:28:57.173Z,7.40
2018-04-10T04:31:25.630Z,7.50
2018-04-10T04:33:54.068Z,7.60
2018-04-10T04:36:21.746Z,7.50
2018-04-10T04:38:49.447Z,7.60
2018-04-10T04:41:17.193Z,7.70
2018-04-10T04:43:45.722Z,7.70
2018-04-10T04:46:13.434Z,7.70
2018-04-10T04:48:41.096Z,7.80
2018-04-10T04:51:09.488Z,8.00
2018-04-10T04:53:37.188Z,8.00
2018-04-10T04:56:04.898Z,8.10
2018-04-10T04:58:32.554Z,8.20
2018-04-10T05:01:00.210Z,8.30
2018-04-10T05:03:27.981Z,8.30
2018-04-10T05:05:56.448Z,8.60
2018-04-10T05:08:24.135Z,8.50
2018-04-10T05:10:51.794Z,8.60
2018-04-10T05:13:19.489Z,8.60
2018-04-10T05:15:47.217Z,8.60
2018-04-10T05:18:15.652Z,8.70
2018-04-10T05:20:43.313Z,8.60
2018-04-10T05:23:11.029Z,8.70
2018-04-10T05:25:38.681Z,8.70
2018-04-10T05:28:06.337Z,8.70
2018-04-10T05:30:34.811Z,8.80
2018-04-10T05:33:02.489Z,8.80
2018-04-10T05:35:30.884Z,9.00
2018-04-10T05:37:58.604Z,8.90
2018-04-10T05:40:27.035Z,9.20
2018-04-10T05:42:54.704Z,9.20
2018-04-10T05:45:22.419Z,9.40
2018-04-10T05:47:50.861Z,9.70
2018-04-10T05:50:18.514Z,9.60
2018-04-10T05:52:46.179Z,9.90
2018-04-10T05:55:13.849Z,10.30
2018-04-10T05:57:41.574Z,10.50
2018-04-10T06:00:09.325Z,10.80
2018-04-10T06:02:36.990Z,11.10
2018-04-10T06:05:04.706Z,11.40
2018-04-10T06:07:32.382Z,11.60
2018-04-10T06:10:00.104Z,11.90
2018-04-10T06:12:27.783Z,12.10
2018-04-10T06:14:55.482Z,12.30
2018-04-10T06:17:23.181Z,12.60
2018-04-10T06:19:50.922Z,12.70
2018-04-10T06:22:18.637Z,12.90
2018-04-10T06:24:47.098Z,13.20
2018-04-10T06:27:14.809Z,13.20
2018-04-10T06:29:42.565Z,13.40
2018-04-10T06:32:10.247Z,13.50
2018-04-10T06:34:37.907Z,13.60
2018-04-10T06:37:05.680Z,13.70
2018-04-10T06:39:33.463Z,13.80
2018-04-10T06:42:01.139Z,13.90
2018-04-10T06:44:29.593Z,14.20
2018-04-10T06:46:57.304Z,14.20
2018-04-10T06:49:25.716Z,14.40
2018-04-10T06:51:53.435Z,14.40
2018-04-10T06:54:21.930Z,14.70
2018-04-10T06:56:49.583Z,14.70
2018-04-10T06:59:17.304Z,15.00
2018-04-10T07:01:45.011Z,15.10
2018-04-10T07:04:12.678Z,15.20
2018-04-10T07:06:40.387Z,15.10
2018-04-10T07:09:08.119Z,15.20
2018-04-10T07:11:35.825Z,15.20
2018-04-10T07:14:03.547Z,15.20
2018-04-10T07:16:31.197Z,15.00
2018-04-10T07:18:58.828Z,14.80
2018-04-10T07:21:26.482Z,14.70
2018-04-10T07:23:54.149Z,14.70
2018-04-10T07:26:22.546Z,14.40
2018-04-10T07:28:50.215Z,14.30
2018-04-10T07:31:17.905Z,14.30
2018-04-10T07:33:46.340Z,14.10
2018-04-10T07:36:14.045Z,14.10
2018-04-10T07:38:41.728Z,14.10
2018-04-10T07:41:10.175Z,14.10
2018-04-10T07:43:37.862Z,14.10
2018-04-10T07:46:05.567Z,14.10
2018-04-10T07:48:33.210Z,14.10
2018-04-10T07:51:01.641Z,14.10
2018-04-10T07:53:29.327Z,14.10
2018-04-10T07:55:57.030Z,14.10
2018-04-10T07:58:24.721Z,14.20
2018-04-10T08:00:52.437Z,14.20
2018-04-10T08:03:20.863Z,14.10
2018-04-10T08:05:48.546Z,14.20
2018-04-10T08:08:16.210Z,14.30
2018-04-10T08:10:43.845Z,14.30
2018-04-10T08:13:11.541Z,14.30
2018-04-10T08:15:40.000Z,14.40
2018-04-10T08:18:07.654Z,14.40
2018-04-10T08:20:35.334Z,14.40
2018-04-10T08:23:03.074Z,14.40
2018-04-10T08:25:30.724Z,14.50
2018-04-10T08:27:58.407Z,14.50
2018-04-10T08:30:26.104Z,14.50
2018-04-10T08:32:53.778Z,14.60
2018-04-10T08:35:21.458Z,14.60
2018-04-10T08:37:49.177Z,14.70
2018-04-10T08:40:17.636Z,14.90
2018-04-10T08:42:45.387Z,14.90
2018-04-10T08:45:13.093Z,14.90
2018-04-10T08:47:40.758Z,15.00
2018-04-10T08:50:08.501Z,15.10
2018-04-10T08:52:36.943Z,15.10
2018-04-10T08:55:04.596Z,15.00
2018-04-10T08:57:32.321Z,15.20
2018-04-10T08:59:59.982Z,15.20
2018-04-10T09:02:27.656Z,15.30
2018-04-10T09:04:55.394Z,15.30
2018-04-10T09:07:23.103Z,15.40
2018-04-10T09:09:50.758Z,15.40
2018-04-10T09:12:18.439Z,15.50
2018-04-10T09:14:46.957Z,15.60
2018-04-10T09:17:14.621Z,15.60
2018-04-10T09:19:42.288Z,15.60
2018-04-10T09:22:09.962Z,15.80
2018-04-10T09:24:38.349Z,15.90
2018-04-10T09:27:06.017Z,15.90
2018-04-10T09:29:33.702Z,16.00
2018-04-10T09:32:01.367Z,16.00
2018-04-10T09:34:29.820Z,16.10
2018-04-10T09:36:57.482Z,16.10
2018-04-10T09:39:25.098Z,16.20
2018-04-10T09:41:52.759Z,16.20
2018-04-10T09:44:20.482Z,16.20
2018-04-10T09:46:48.938Z,16.10
2018-04-10T09:49:16.626Z,16.10
2018-04-10T09:51:44.354Z,16.10
2018-04-10T09:54:12.006Z,16.10
2018-04-10T09:56:39.674Z,16.10
2018-04-10T09:59:07.399Z,16.10
2018-04-10T10:01:35.793Z,16.20
2018-04-10T10:04:03.452Z,16.10
2018-04-10T10:06:31.122Z,16.20
2018-04-10T10:08:58.786Z,16.20
2018-04-10T10:11:26.499Z,16.20
2018-04-10T10:13:54.202Z,16.30
2018-04-10T10:16:22.630Z,16.30
2018-04-10T10:18:50.298Z,16.20
2018-04-10T10:21:18.809Z,16.30
2018-04-10T10:23:46.782Z,16.30
2018-04-10T10:26:14.477Z,16.20
2018-04-10T10:28:42.145Z,16.10
2018-04-10T10:31:09.819Z,16.20
2018-04-10T10:33:37.514Z,16.20
2018-04-10T10:36:05.243Z,16.20
2018-04-10T10:38:32.885Z,16.20
2018-04-10T10:41:00.562Z,16.30
2018-04-10T10:43:28.290Z,16.40
2018-04-10T10:45:55.939Z,16.50
2018-04-10T10:48:23.647Z,16.50
2018-04-10T10:50:51.346Z,16.60
2018-04-10T10:53:19.065Z,16.70
2018-04-10T10:55:46.730Z,16.80
2018-04-10T10:58:14.391Z,16.90
2018-04-10T11:00:42.070Z,16.90
2018-04-10T11:03:10.533Z,17.10
2018-04-10T11:05:38.233Z,17.10
2018-04-10T11:08:05.886Z,17.20
2018-04-10T11:10:33.608Z,17.30
2018-04-10T11:13:01.340Z,17.40
2018-04-10T11:15:29.030Z,17.60
2018-04-10T11:17:56.703Z,17.60
2018-04-10T11:20:25.168Z,17.70
2018-04-10T11:22:52.845Z,17.70
2018-04-10T11:25:21.280Z,17.50
2018-04-10T11:27:48.966Z,17.60
2018-04-10T11:30:16.652Z,17.50
2018-04-10T11:32:46.118Z,17.50
2018-04-10T11:35:13.793Z,17.50
2018-04-10T11:37:41.492Z,17.60
2018-04-10T11:40:09.153Z,17.60
2018-04-10T11:42:36.850Z,17.60
2018-04-10T11:45:04.613Z,17.70
2018-04-10T11:47:32.279Z,17.60
2018-04-10T11:49:59.959Z,17.80
2018-04-10T11:52:27.642Z,17.80
2018-04-10T11:54:56.097Z,17.80
2018-04-10T11:57:23.792Z,17.80
2018-04-10T11:59:51.455Z,17.90
2018-04-10T12:02:19.172Z,17.80
2018-04-10T12:04:47.311Z,17.60
2018-04-10T12:07:15.041Z,17.40
2018-04-10T12:09:43.515Z,17.70
2018-04-10T12:12:11.926Z,17.80
2018-04-10T12:14:39.558Z,17.80
2018-04-10T12:17:07.993Z,17.90
2018-04-10T12:19:35.682Z,17.80
2018-04-10T12:22:04.086Z,17.70
2018-04-10T12:24:31.756Z,17.60
2018-04-10T12:26:59.425Z,17.80
2018-04-10T12:29:27.074Z,17.90
2018-04-10T12:31:54.766Z,17.90
2018-04-10T12:34:22.465Z,17.90
2018-04-10T12:36:50.874Z,18.10
2018-04-10T12:39:18.528Z,18.10
2018-04-10T12:41:46.262Z,18.30
2018-04-10T12:44:14.657Z,18.30
2018-04-10T12:46:43.089Z,18.30
2018-04-10T12:49:10.766Z,18.20
2018-04-10T12:51:38.422Z,18.30
2018-04-10T12:54:06.087Z,18.40
2018-04-10T12:56:33.765Z,18.50
2018-04-10T12:59:02.149Z,18.60
2018-04-10T13:01:29.815Z,18.50
2018-04-10T13:03:57.477Z,18.60
2018-04-10T13:06:25.151Z,18.50
2018-04-10T13:08:52.856Z,18.20
2018-04-10T13:11:20.547Z,18.20
2018-04-10T13:13:49.187Z,18.10
2018-04-10T13:16:17.680Z,18.00
2018-04-10T13:18:45.381Z,18.00
2018-04-10T13:21:13.038Z,18.10
2018-04-10T13:23:40.706Z,18.20
2018-04-10T13:26:08.492Z,18.20
2018-04-10T13:28:36.132Z,18.30
2018-04-10T13:31:03.798Z,18.10
2018-04-10T13:33:31.463Z,18.20
2018-04-10T13:35:59.081Z,18.30
2018-04-10T13:38:26.729Z,18.30
2018-04-10T13:40:54.438Z,18.40
2018-04-10T13:43:22.083Z,18.40
2018-04-10T13:45:49.769Z,18.40
2018-04-10T13:48:17.459Z,18.30
2018-04-10T13:50:45.088Z,18.30
2018-04-10T13:53:12.737Z,18.30
2018-04-10T13:55:40.395Z,18.30
2018-04-10T13:58:08.036Z,18.40
2018-04-10T14:00:35.697Z,18.50
2018-04-10T14:03:04.175Z,18.30
2018-04-10T14:05:32.570Z,18.30
2018-04-10T14:08:00.275Z,18.30
2018-04-10T14:10:27.968Z,18.40
2018-04-10T14:12:56.359Z,18.40
2018-04-10T14:15:24.805Z,18.40
2018-04-10T14:17:53.253Z,18.40
2018-04-10T14:20:20.884Z,18.40
2018-04-10T14:22:48.556Z,18.40
2018-04-10T14:25:16.250Z,18.40
2018-04-10T14:27:43.916Z,18.40
2018-04-10T14:30:11.621Z,18.30
2018-04-10T14:32:40.037Z,18.20
2018-04-10T14:35:07.706Z,18.20
2018-04-10T14:37:35.366Z,18.20
2018-04-10T14:40:03.035Z,18.30
2018-04-10T14:42:30.654Z,18.20
2018-04-10T14:44:58.340Z,18.10
2018-04-10T14:47:26.030Z,18.20
2018-04-10T14:49:53.668Z,18.10
2018-04-10T14:52:21.365Z,18.00
2018-04-10T14:54:49.795Z,18.10
2018-04-10T14:57:17.401Z,18.00
2018-04-10T14:59:45.059Z,18.10
2018-04-10T15:02:13.606Z,18.10
2018-04-10T15:04:41.262Z,18.10
2018-04-10T15:07:08.919Z,18.00
2018-04-10T15:09:36.581Z,18.00
2018-04-10T15:12:04.775Z,18.00
2018-04-10T15:14:32.434Z,18.00
2018-04-10T15:17:00.102Z,18.00
2018-04-10T15:19:27.791Z,18.00
2018-04-10T15:21:56.214Z,18.00
2018-04-10T15:24:23.850Z,17.90
2018-04-10T15:26:51.526Z,18.00
2018-04-10T15:29:19.199Z,17.90
2018-04-10T15:31:47.997Z,17.90
2018-04-10T15:34:15.654Z,17.90
2018-04-10T15:36:43.305Z,17.90
2018-04-10T15:39:10.932Z,17.90
2018-04-10T15:41:38.874Z,18.00
2018-04-10T15:44:07.289Z,18.00
2018-04-10T15:46:34.952Z,17.90
2018-04-10T15:49:02.733Z,18.00
2018-04-10T15:51:30.423Z,17.90
2018-04-10T15:53:58.077Z,17.90
2018-04-10T15:56:25.771Z,17.90
2018-04-10T15:58:53.442Z,17.90
2018-04-10T16:01:21.118Z,17.90
2018-04-10T16:03:48.755Z,17.90
2018-04-10T16:06:16.684Z,17.90
2018-04-10T16:08:45.571Z,17.70
2018-04-10T16:11:13.664Z,17.70
2018-04-10T16:13:41.607Z,17.60
2018-04-10T16:16:10.633Z,17.60
2018-04-10T16:18:39.301Z,17.60
2018-04-10T16:21:07.556Z,17.50
2018-04-10T16:23:35.218Z,17.50
2018-04-10T16:26:02.882Z,17.40
2018-04-10T16:28:30.541Z,17.40
2018-04-10T16:30:58.202Z,17.30
2018-04-10T16:33:25.843Z,17.30
2018-04-10T16:35:53.532Z,17.30
2018-04-10T16:38:21.981Z,17.30
2018-04-10T16:40:49.595Z,17.30
2018-04-10T16:43:17.235Z,17.20
2018-04-10T16:45:45.770Z,17.10
2018-04-10T16:48:13.410Z,17.10
2018-04-10T16:50:41.086Z,17.10
2018-04-10T16:53:08.744Z,17.10
2018-04-10T16:55:36.417Z,17.00
2018-04-10T16:58:04.092Z,16.90
2018-04-10T17:00:32.050Z,16.90
2018-04-10T17:03:00.207Z,16.80
2018-04-10T17:05:30.331Z,16.70
2018-04-10T17:07:57.999Z,16.70
2018-04-10T17:10:25.642Z,16.70
2018-04-10T17:12:53.284Z,16.70
2018-04-10T17:15:20.950Z,16.70
2018-04-10T17:17:48.569Z,16.60
2018-04-10T17:20:17.030Z,16.50
2018-04-10T17:22:44.775Z,16.50
2018-04-10T17:25:12.430Z,16.50
2018-04-10T17:27:40.116Z,16.50
2018-04-10T17:30:07.859Z,16.40
2018-04-10T17:32:35.505Z,16.40
2018-04-10T17:35:03.257Z,16.30
2018-04-10T17:37:30.922Z,16.30
2018-04-10T17:39:58.583Z,16.30
2018-04-10T17:42:26.255Z,16.20
2018-04-10T17:44:55.198Z,16.20
2018-04-10T17:47:23.891Z,16.10
2018-04-10T17:49:53.148Z,16.10
2018-04-10T17:52:21.994Z,16.10
2018-04-10T17:54:50.001Z,16.00
2018-04-10T17:57:18.916Z,15.90
2018-04-10T17:59:46.878Z,15.90
2018-04-10T18:02:16.599Z,15.90
2018-04-10T18:04:44.662Z,15.90
2018-04-10T18:07:13.724Z,15.80
2018-04-10T18:09:41.866Z,15.80
2018-04-10T18:12:09.965Z,15.70
2018-04-10T18:14:38.180Z,15.70
2018-04-10T18:17:06.149Z,15.60
2018-04-10T18:19:34.463Z,15.60
2018-04-10T18:22:02.698Z,15.50
2018-04-10T18:24:30.712Z,15.50
2018-04-10T18:26:59.014Z,15.40
2018-04-10T18:29:27.685Z,15.40
2018-04-10T18:31:56.470Z,15.40
2018-04-10T18:34:24.939Z,15.40
2018-04-10T18:36:52.887Z,15.40
2018-04-10T18:39:21.215Z,15.40
2018-04-10T18:41:49.861Z,15.40
2018-04-10T18:44:19.179Z,15.50
2018-04-10T18:46:48.191Z,15.50
2018-04-10T18:49:16.361Z,15.60
2018-04-10T18:51:44.427Z,15.60
2018-04-10T18:54:12.407Z,15.60
2018-04-10T18:56:40.498Z,15.60
2018-04-10T18:59:08.445Z,15.60
2018-04-10T19:01:36.376Z,15.60
2018-04-10T19:04:06.998Z,15.70
2018-04-10T19:06:35.289Z,15.70
2018-04-10T19:09:05.163Z,15.60
2018-04-10T19:11:33.997Z,15.40
2018-04-10T19:14:01.908Z,15.10
2018-04-10T19:16:29.873Z,14.70
2018-04-10T19:18:57.853Z,14.40
2018-04-10T19:21:25.757Z,14.20
2018-04-10T19:23:53.691Z,14.10
2018-04-10T19:26:21.600Z,14.00
2018-04-10T19:28:49.582Z,13.90
2018-04-10T19:31:17.473Z,13.50
2018-04-10T19:33:45.308Z,13.30
2018-04-10T19:36:13.100Z,13.00
2018-04-10T19:38:40.841Z,12.90
2018-04-10T19:41:08.555Z,12.80
2018-04-10T19:43:36.256Z,12.60
2018-04-10T19:46:05.350Z,12.50
2018-04-10T19:48:33.130Z,12.40
2018-04-10T19:51:01.125Z,12.40
2018-04-10T19:53:28.926Z,12.40
2018-04-10T19:55:56.730Z,12.40
2018-04-10T19:58:25.947Z,12.40
2018-04-10T20:00:54.860Z,12.40
2018-04-10T20:03:22.801Z,12.40
2018-04-10T20:05:50.710Z,12.40
2018-04-10T20:08:19.354Z,12.30
2018-04-10T20:10:47.230Z,12.30
2018-04-10T20:13:15.191Z,12.30
2018-04-10T20:15:43.088Z,12.20
2018-04-10T20:18:11.039Z,12.20
2018-04-10T20:20:38.887Z,12.10
2018-04-10T20:23:06.654Z,12.00
2018-04-10T20:25:34.393Z,12.10
2018-04-10T20:28:02.261Z,12.10
2018-04-10T20:30:29.931Z,12.00
2018-04-10T20:32:57.581Z,12.00
2018-04-10T20:35:25.216Z,11.90
2018-04-10T20:37:53.672Z,11.80
2018-04-10T20:40:21.343Z,11.80
2018-04-10T20:42:49.842Z,11.70
2018-04-10T20:45:17.517Z,11.60
2018-04-10T20:47:45.231Z,11.60
2018-04-10T20:50:12.944Z,11.50
2018-04-10T20:52:40.626Z,11.50
2018-04-10T20:55:08.440Z,11.50
2018-04-10T20:57:37.276Z,11.50
2018-04-10T21:00:05.966Z,11.50
2018-04-10T21:02:38.949Z,11.50
2018-04-10T21:05:06.957Z,11.50
2018-04-10T21:07:42.463Z,11.40
2018-04-10T21:10:10.506Z,11.30
2018-04-10T21:12:39.210Z,11.30
2018-04-10T21:15:07.136Z,11.30
2018-04-10T21:17:35.620Z,11.40
2018-04-10T21:20:03.404Z,11.40
2018-04-10T21:22:32.135Z,11.40
2018-04-10T21:25:00.625Z,11.30
2018-04-10T21:27:28.563Z,11.30
2018-04-10T21:29:58.073Z,11.20
2018-04-10T21:32:26.693Z,11.20
2018-04-10T21:34:55.453Z,11.10
2018-04-10T21:37:24.133Z,11.10
2018-04-10T21:39:51.806Z,11.10
2018-04-10T21:42:20.297Z,11.00
2018-04-10T21:44:48.754Z,11.00
2018-04-10T21:47:16.411Z,11.00
2018-04-10T21:49:44.071Z,11.00
2018-04-10T21:52:11.695Z,10.90
2018-04-10T21:54:39.369Z,10.90
2018-04-10T21:57:07.046Z,10.90
2018-04-10T21:59:34.726Z,10.90
2018-04-10T22:02:03.172Z,10.80
2018-04-10T22:04:30.869Z,10.80
2018-04-10T22:06:59.326Z,10.80
2018-04-10T22:09:27.106Z,10.80
2018-04-10T22:11:55.592Z,10.70
2018-04-10T22:14:24.049Z,10.70
2018-04-10T22:16:51.750Z,10.70
2018-04-10T22:19:19.418Z,10.70
2018-04-10T22:21:47.063Z,10.70
2018-04-10T22:24:15.516Z,10.80
2018-04-10T22:26:43.207Z,10.80
2018-04-10T22:29:11.631Z,10.90
2018-04-10T22:31:39.397Z,10.90
2018-04-10T22:34:07.184Z,10.90
2018-04-10T22:36:35.043Z,11.00
2018-04-10T22:39:02.840Z,11.00
2018-04-10T22:41:30.701Z,10.90
2018-04-10T22:43:58.425Z,11.00
2018-04-10T22:46:26.186Z,10.90
2018-04-10T22:48:53.934Z,11.00
2018-04-10T22:51:22.381Z,11.00
2018-04-10T22:53:50.098Z,11.00
2018-04-10T22:56:17.791Z,11.00
2018-04-10T22:58:45.442Z,11.00
2018-04-10T23:01:13.143Z,11.00
2018-04-10T23:03:40.826Z,11.00
2018-04-10T23:06:08.520Z,11.00
2018-04-10T23:08:36.196Z,11.10
2018-04-10T23:11:03.917Z,11.10
2018-04-10T23:13:31.582Z,11.10
2018-04-10T23:16:00.071Z,11.10
2018-04-10T23:18:28.549Z,11.10
2018-04-10T23:20:56.234Z,11.10
2018-04-10T23:23:23.956Z,11.10
2018-04-10T23:25:51.709Z,11.00
2018-04-10T23:28:19.400Z,11.00
2018-04-10T23:30:47.855Z,11.00
2018-04-10T23:33:15.590Z,11.00
2018-04-10T23:35:43.275Z,11.00
2018-04-10T23:38:10.947Z,11.00
2018-04-10T23:40:38.675Z,11.00
2018-04-10T23:43:06.424Z,11.00
2018-04-10T23:45:34.210Z,10.90
2018-04-10T23:48:01.953Z,11.00
2018-04-10T23:50:29.618Z,10.90
2018-04-10T23:52:57.327Z,10.90
2018-04-10T23:55:25.080Z,10.90
2018-04-10T23:57:52.749Z,10.80
